Time;durP1;ratioP1;P1;durP2;ratioP2;P2;SDS_P1;SDS_P2;PMS_P1;PMS_P2;Temp;Humidity;BMP_temperature;BMP_pressure;BME280_temperature;BME280_humidity;BME280_pressure;Samples;Min_cycle;Max_cycle;Signal;HPM_P1;HPM_P2
2021/12/04 00:01:22;;;;;;;7.50;6.87;;;1.60;99.90;;;2.37;89.71;96842.31;5185790;28;20718;-61
2021/12/04 00:03:55;;;;;;;7.30;6.70;;;1.60;99.90;;;2.38;90.45;96839.91;5186168;28;20599;-62
2021/12/04 00:06:36;;;;;;;7.60;6.90;;;1.70;99.90;;;2.39;89.59;96833.22;5186622;28;20199;-61
2021/12/04 00:09:12;;;;;;;7.23;6.57;;;1.70;99.90;;;2.44;89.06;96820.19;5185840;28;20206;-62
2021/12/04 00:11:53;;;;;;;7.37;6.70;;;1.70;99.90;;;2.47;89.87;96824.56;5185279;28;20223;-61
2021/12/04 00:14:27;;;;;;;10.03;8.97;;;1.70;99.90;;;2.50;89.87;96817.22;5185378;28;20196;-61
2021/12/04 00:17:01;;;;;;;11.33;10.13;;;1.70;99.90;;;2.42;90.24;96806.56;5186102;28;20206;-61
2021/12/04 00:19:35;;;;;;;10.10;9.20;;;1.70;99.90;;;2.46;90.91;96805.13;5183761;28;20292;-61
2021/12/04 00:22:09;;;;;;;8.53;7.73;;;1.70;99.90;;;2.46;91.30;96793.44;5184842;28;20228;-61
2021/12/04 00:24:43;;;;;;;11.47;10.27;;;1.80;99.90;;;2.51;91.13;96792.88;5183949;28;20288;-61
2021/12/04 00:27:17;;;;;;;11.60;9.70;;;1.80;99.90;;;2.56;91.58;96789.91;5185624;28;20342;-60
2021/12/04 00:29:50;;;;;;;11.50;10.33;;;1.80;99.90;;;2.58;92.23;96788.38;5186049;28;20196;-62
2021/12/04 00:32:28;;;;;;;11.90;10.10;;;1.80;99.90;;;2.62;92.41;96790.31;5184170;28;20228;-61
2021/12/04 00:35:09;;;;;;;13.40;10.70;;;1.90;99.90;;;2.67;92.14;96783.97;5184626;28;20203;-61
2021/12/04 00:38:08;;;;;;;11.27;10.20;;;1.90;99.90;;;2.66;93.07;96776.28;5184674;28;20275;-62
2021/12/04 00:49:17;;;;;;;12.10;11.03;;;1.90;99.90;;;2.69;93.57;96762.25;5184787;28;20626;-61
2021/12/04 00:51:54;;;;;;;12.43;11.30;;;1.90;99.90;;;2.73;92.65;96752.38;5183069;28;20214;-61
2021/12/04 00:54:28;;;;;;;12.60;11.40;;;1.90;99.90;;;2.61;92.29;96750.75;5183230;28;20194;-61
2021/12/04 00:57:03;;;;;;;12.20;11.00;;;1.90;99.90;;;2.60;93.56;96746.44;5183655;28;20198;-61
2021/12/04 00:59:36;;;;;;;10.90;9.90;;;1.90;99.90;;;2.66;93.66;96746.91;5183236;28;20652;-61
2021/12/04 01:02:09;;;;;;;9.87;8.97;;;1.90;99.90;;;2.69;93.69;96744.59;5184751;28;20698;-62
2021/12/04 01:04:43;;;;;;;9.07;8.27;;;1.90;99.90;;;2.65;93.61;96744.25;5183566;28;20190;-61
2021/12/04 01:07:16;;;;;;;10.03;9.13;;;1.90;99.90;;;2.64;94.00;96745.91;5185473;28;20215;-61
2021/12/04 01:09:49;;;;;;;9.60;8.80;;;1.90;99.90;;;2.66;94.14;96739.34;5184502;28;20576;-61
2021/12/04 01:12:24;;;;;;;9.60;8.80;;;1.90;99.90;;;2.76;93.06;96732.41;5181242;28;20218;-62
2021/12/04 01:14:57;;;;;;;9.50;8.63;;;1.90;99.90;;;2.77;92.73;96726.56;5183713;28;20655;-60
2021/12/04 01:17:30;;;;;;;8.30;7.60;;;1.90;99.90;;;2.78;92.90;96730.88;5185060;28;20208;-61
2021/12/04 01:20:05;;;;;;;7.50;6.87;;;1.80;99.90;;;2.74;92.76;96728.88;5182727;28;20699;-61
2021/12/04 01:22:39;;;;;;;7.80;7.20;;;1.90;99.90;;;2.70;93.41;96728.69;5185282;28;20237;-61
2021/12/04 01:25:12;;;;;;;7.10;6.50;;;1.90;99.90;;;2.68;93.53;96721.78;5185214;28;20207;-61
2021/12/04 01:27:46;;;;;;;6.67;6.17;;;1.90;99.90;;;2.70;93.12;96713.53;5182554;28;20294;-61
2021/12/04 01:30:20;;;;;;;6.50;6.10;;;1.90;99.90;;;2.77;92.97;96709.78;5180578;28;20585;-61
2021/12/04 01:32:53;;;;;;;8.63;7.93;;;1.90;99.90;;;2.71;93.36;96705.19;5182680;28;20202;-61
2021/12/04 01:35:26;;;;;;;8.57;7.67;;;1.90;99.90;;;2.77;92.74;96701.34;5183540;28;20199;-60
2021/12/04 01:38:00;;;;;;;6.80;6.27;;;1.90;99.90;;;2.64;92.44;96682.00;5185286;28;20209;-61
2021/12/04 01:40:33;;;;;;;7.80;7.30;;;1.90;99.90;;;2.61;92.92;96690.22;5181922;28;20224;-61
2021/12/04 01:43:07;;;;;;;6.97;6.37;;;1.90;99.90;;;2.66;93.52;96686.38;5184041;28;20219;-61
2021/12/04 01:45:41;;;;;;;7.90;7.30;;;1.90;99.90;;;2.72;93.36;96678.34;5183689;28;20231;-61
2021/12/04 01:48:14;;;;;;;7.13;6.53;;;2.00;99.90;;;2.72;93.04;96680.88;5180047;28;20572;-61
2021/12/04 01:50:47;;;;;;;6.50;5.93;;;1.90;99.90;;;2.69;93.56;96676.47;5182822;28;20220;-62
2021/12/04 01:53:21;;;;;;;6.60;6.10;;;1.90;99.90;;;2.72;93.60;96673.28;5183467;28;20206;-61
2021/12/04 01:55:56;;;;;;;6.80;6.13;;;1.90;99.90;;;2.67;93.06;96672.97;5182604;28;20205;-60
2021/12/04 01:58:31;;;;;;;6.70;6.10;;;1.90;99.90;;;2.67;93.84;96675.50;5184520;28;20214;-61
2021/12/04 02:01:05;;;;;;;7.63;7.03;;;1.90;99.90;;;2.71;93.14;96672.41;5182912;28;20223;-61
2021/12/04 02:03:38;;;;;;;6.80;6.27;;;1.90;99.90;;;2.71;93.52;96679.09;5180953;28;20798;-60
2021/12/04 02:06:12;;;;;;;6.53;6.00;;;2.00;99.90;;;2.76;93.12;96671.84;5178502;28;20666;-61
2021/12/04 02:08:46;;;;;;;6.47;5.87;;;1.90;99.90;;;2.77;93.00;96669.41;5182909;28;20203;-61
2021/12/04 02:11:19;;;;;;;6.23;5.73;;;1.90;99.90;;;2.78;93.65;96668.66;5181870;28;20764;-61
2021/12/04 02:13:54;;;;;;;6.37;5.97;;;2.00;99.90;;;2.82;93.28;96663.03;5183009;28;20249;-61
2021/12/04 02:16:27;;;;;;;6.93;6.40;;;2.00;99.90;;;2.81;93.73;96665.47;5181913;28;20200;-62
2021/12/04 02:19:00;;;;;;;6.80;6.30;;;2.00;99.90;;;2.79;93.55;96657.78;5178428;28;20212;-61
2021/12/04 02:21:35;;;;;;;7.20;6.60;;;2.00;99.90;;;2.80;94.26;96663.69;5178842;28;20233;-60
2021/12/04 02:24:08;;;;;;;6.80;6.20;;;2.00;99.90;;;2.77;93.92;96654.28;5181919;28;20198;-60
2021/12/04 02:26:42;;;;;;;7.37;6.70;;;1.90;99.90;;;2.61;93.71;96652.38;5181268;28;20209;-61
2021/12/04 02:29:15;;;;;;;7.10;6.50;;;1.90;99.90;;;2.53;94.29;96640.03;5184599;28;20659;-61
2021/12/04 02:31:49;;;;;;;6.73;6.13;;;1.80;99.90;;;2.52;94.20;96630.69;5182803;28;20227;-61
2021/12/04 02:34:23;;;;;;;7.23;6.67;;;1.90;99.90;;;2.52;95.08;96636.63;5179821;28;20199;-61
2021/12/04 02:36:58;;;;;;;7.07;6.50;;;1.90;99.90;;;2.50;95.13;96625.56;5182626;28;20203;-60
2021/12/04 02:39:35;;;;;;;6.60;6.10;;;1.90;99.90;;;2.44;94.90;96627.69;5182404;28;20203;-61
2021/12/04 02:42:20;;;;;;;6.50;5.90;;;1.80;99.90;;;2.31;94.54;96632.66;5181989;28;20320;-61
2021/12/04 02:44:53;;;;;;;6.17;5.77;;;1.70;99.90;;;2.27;95.13;96623.13;5186588;28;20206;-60
2021/12/04 02:47:26;;;;;;;6.13;5.73;;;1.70;99.90;;;2.21;95.86;96621.06;5185738;28;20203;-60
2021/12/04 02:50:04;;;;;;;6.63;6.10;;;1.70;99.90;;;2.15;95.71;96624.03;5186131;28;20199;-61
2021/12/04 02:52:39;;;;;;;6.33;5.87;;;1.70;99.90;;;2.03;96.57;96597.97;5186461;28;20629;-60
2021/12/04 02:55:12;;;;;;;5.90;5.40;;;1.60;99.90;;;1.99;97.39;96596.03;5182757;28;20208;-61
2021/12/04 02:57:46;;;;;;;6.80;6.20;;;1.60;99.90;;;1.96;97.76;96595.81;5186779;28;20329;-62
2021/12/04 03:00:22;;;;;;;6.73;6.23;;;1.60;99.90;;;1.99;98.30;96591.84;5185265;28;22075;-62
2021/12/04 03:02:56;;;;;;;7.03;6.40;;;1.60;99.90;;;2.01;98.56;96575.22;5187204;28;20213;-62
2021/12/04 03:05:30;;;;;;;7.20;6.50;;;1.60;99.90;;;2.07;98.44;96578.94;5185554;28;20194;-61
2021/12/04 03:08:07;;;;;;;7.90;7.10;;;1.60;99.90;;;2.10;99.29;96569.91;5186999;28;20203;-61
2021/12/04 03:10:40;;;;;;;7.87;7.20;;;1.70;99.90;;;2.12;99.63;96560.84;5185953;28;20588;-62
2021/12/04 03:13:14;;;;;;;7.70;7.10;;;1.70;99.90;;;2.13;98.87;96564.22;5181778;28;20375;-62
2021/12/04 03:15:56;;;;;;;8.93;8.13;;;1.70;99.90;;;2.12;100.00;96559.94;5185350;28;20307;-60
2021/12/04 03:18:29;;;;;;;6.63;6.13;;;1.70;99.90;;;2.12;100.00;96560.84;5184798;28;20206;-61
2021/12/04 03:21:04;;;;;;;6.73;6.13;;;1.60;99.90;;;2.03;100.00;96555.13;5186859;28;20227;-61
2021/12/04 03:23:52;;;;;;;7.23;6.53;;;1.50;99.90;;;2.02;100.00;96556.78;5185167;28;20207;-60
2021/12/04 03:26:26;;;;;;;7.50;6.57;;;1.50;99.90;;;2.01;100.00;96554.19;5183010;28;20205;-61
2021/12/04 03:29:02;;;;;;;8.53;7.77;;;1.40;99.90;;;1.96;100.00;96545.44;5186115;28;20215;-60
2021/12/04 03:31:47;;;;;;;7.63;6.97;;;1.40;99.90;;;1.98;100.00;96538.84;5187266;28;20595;-61
2021/12/04 03:40:09;;;;;;;7.60;7.00;;;1.30;99.90;;;1.89;100.00;96531.56;5184396;28;20245;-61
2021/12/04 03:42:42;;;;;;;7.23;5.87;;;1.30;99.90;;;1.94;100.00;96529.31;5187730;28;20211;-62
2021/12/04 03:45:16;;;;;;;6.90;6.40;;;1.40;99.90;;;1.99;100.00;96522.97;5182085;28;20205;-60
2021/12/04 03:47:52;;;;;;;8.07;7.27;;;1.40;99.90;;;1.97;100.00;96520.31;5182548;28;20655;-62
2021/12/04 03:50:25;;;;;;;7.07;6.50;;;1.40;99.90;;;2.02;100.00;96498.84;5184983;28;20214;-62
2021/12/04 03:52:58;;;;;;;6.53;6.00;;;1.40;99.90;;;1.95;100.00;96499.22;5186505;28;20657;-61
2021/12/04 03:55:34;;;;;;;6.70;6.20;;;1.40;99.90;;;1.95;100.00;96498.34;5183032;28;20217;-61
2021/12/04 03:58:07;;;;;;;6.67;6.17;;;1.30;99.90;;;1.94;100.00;96476.41;5186420;28;20196;-62
2021/12/04 04:00:41;;;;;;;6.83;6.33;;;1.30;99.90;;;1.83;100.00;96477.34;5185544;28;20215;-62
2021/12/04 04:03:14;;;;;;;6.90;6.40;;;1.20;99.90;;;1.94;100.00;96483.97;5184832;28;20317;-62
2021/12/04 04:05:48;;;;;;;7.40;6.80;;;1.20;99.90;;;1.94;100.00;96462.16;5183590;28;20207;-61
2021/12/04 04:08:21;;;;;;;8.00;7.17;;;1.30;99.90;;;2.00;100.00;96456.66;5185492;28;20199;-62
2021/12/04 04:10:56;;;;;;;7.00;6.50;;;1.30;99.90;;;1.96;100.00;96455.59;5185276;28;20221;-62
2021/12/04 04:13:29;;;;;;;8.63;7.83;;;1.30;99.90;;;2.05;100.00;96454.47;5182907;28;20194;-60
2021/12/04 04:16:03;;;;;;;8.67;7.87;;;1.40;99.90;;;2.10;100.00;96454.00;5180795;28;20198;-61
2021/12/04 04:18:36;;;;;;;9.23;8.33;;;1.40;99.90;;;2.11;100.00;96444.78;5183574;28;20207;-60
2021/12/04 04:21:09;;;;;;;9.10;8.20;;;1.50;99.90;;;2.15;100.00;96436.69;5184956;28;20708;-61
2021/12/04 04:23:42;;;;;;;9.47;8.50;;;1.50;99.90;;;2.17;100.00;96440.16;5182004;28;20229;-59
2021/12/04 04:26:17;;;;;;;8.40;7.60;;;1.60;99.90;;;2.09;100.00;96441.28;5184684;28;20205;-61
2021/12/04 04:28:50;;;;;;;9.17;8.33;;;1.50;99.90;;;2.12;100.00;96438.97;5183533;28;20211;-62
2021/12/04 04:31:23;;;;;;;7.27;6.57;;;1.40;99.90;;;2.17;100.00;96420.00;5185561;28;20233;-61
2021/12/04 04:34:00;;;;;;;7.23;6.63;;;1.40;99.90;;;2.27;100.00;96431.56;5184542;28;20194;-61
2021/12/04 04:36:58;;;;;;;8.10;7.30;;;1.40;99.90;;;2.21;100.00;96416.91;5183573;28;20206;-62
2021/12/04 04:59:41;;;;;;;9.60;8.70;;;1.50;99.90;;;1.97;100.00;96385.94;5183993;28;20239;-62
2021/12/04 05:02:27;;;;;;;10.03;9.03;;;1.40;99.90;;;2.05;100.00;96382.25;5180078;28;20220;-62
2021/12/04 05:13:31;;;;;;;9.47;8.57;;;1.40;99.90;;;2.10;100.00;96363.28;5171274;28;20198;-60
2021/12/04 05:16:17;;;;;;;9.23;8.37;;;1.50;99.90;;;2.13;100.00;96367.66;5182142;28;20768;-62
2021/12/04 05:18:56;;;;;;;9.63;8.43;;;1.50;99.90;;;2.13;100.00;96363.47;5183599;28;20746;-62
2021/12/04 05:21:29;;;;;;;10.47;9.37;;;1.50;99.90;;;2.08;100.00;96359.78;5183900;28;20222;-63
2021/12/04 05:24:02;;;;;;;11.13;9.27;;;1.40;99.90;;;2.10;100.00;96358.25;5182792;28;20225;-63
2021/12/04 05:26:35;;;;;;;10.90;9.77;;;1.50;99.90;;;2.13;100.00;96360.97;5183121;28;20650;-63
2021/12/04 05:29:08;;;;;;;10.97;9.53;;;1.50;99.90;;;2.14;100.00;96351.75;5183532;28;20198;-63
2021/12/04 05:31:42;;;;;;;11.30;10.10;;;1.50;99.90;;;2.16;100.00;96350.22;5183529;28;20604;-62
2021/12/04 05:34:16;;;;;;;12.37;9.73;;;1.60;99.90;;;2.16;100.00;96348.56;5184224;28;20190;-63
2021/12/04 05:36:49;;;;;;;13.67;10.40;;;1.60;99.90;;;2.17;100.00;96351.94;5183086;28;20203;-63
2021/12/04 05:39:22;;;;;;;10.17;9.17;;;1.60;99.90;;;2.11;100.00;96344.88;5183806;28;20200;-63
2021/12/04 05:41:55;;;;;;;10.67;9.57;;;1.50;99.90;;;2.13;100.00;96345.84;5182202;28;20268;-63
2021/12/04 05:44:31;;;;;;;11.10;9.40;;;1.50;99.90;;;2.16;100.00;96353.59;5183643;28;20704;-63
2021/12/04 05:47:09;;;;;;;10.93;9.80;;;1.60;99.90;;;2.17;100.00;96339.34;5182649;28;20198;-63
2021/12/04 05:49:52;;;;;;;10.20;9.20;;;1.50;99.90;;;2.17;100.00;96345.25;5182534;28;20195;-61
2021/12/04 05:52:37;;;;;;;10.60;9.57;;;1.60;99.90;;;2.22;100.00;96341.38;5180141;28;22745;-63
2021/12/04 05:55:16;;;;;;;10.40;9.30;;;1.60;99.90;;;2.21;100.00;96342.19;5181642;28;20199;-63
2021/12/04 05:57:49;;;;;;;10.30;9.17;;;1.60;99.90;;;2.22;100.00;96335.47;5180690;28;20200;-63
2021/12/04 06:00:25;;;;;;;12.47;9.50;;;1.60;99.90;;;2.23;100.00;96328.03;5178876;28;20596;-63
2021/12/04 06:03:05;;;;;;;11.53;10.23;;;1.70;99.90;;;2.23;100.00;96330.56;5182691;28;20194;-63
2021/12/04 06:05:38;;;;;;;10.47;9.43;;;1.60;99.90;;;2.22;100.00;96328.78;5181595;28;20230;-63
2021/12/04 06:08:12;;;;;;;11.30;9.80;;;1.60;99.90;;;2.31;100.00;96332.66;5181862;28;20423;-62
2021/12/04 06:10:45;;;;;;;11.77;10.03;;;1.70;99.90;;;2.34;100.00;96333.72;5183067;28;20226;-62
2021/12/04 06:13:19;;;;;;;10.50;9.40;;;1.70;99.90;;;2.35;100.00;96327.06;5182627;28;20202;-61
2021/12/04 06:15:53;;;;;;;82.67;60.20;;;1.70;99.90;;;2.34;100.00;96327.81;5182407;28;20569;-62
2021/12/04 06:18:27;;;;;;;35.67;31.83;;;1.70;99.90;;;2.35;100.00;96319.50;5179967;28;20210;-62
2021/12/04 06:23:52;;;;;;;11.80;10.60;;;1.70;99.90;;;2.34;100.00;96305.13;5179131;28;20611;-63
2021/12/04 06:26:25;;;;;;;16.17;12.93;;;1.70;99.90;;;2.32;100.00;96309.19;5181506;28;20199;-63
2021/12/04 06:28:58;;;;;;;15.10;11.13;;;1.70;99.90;;;2.30;100.00;96313.28;5180048;28;20203;-63
2021/12/04 06:31:32;;;;;;;11.40;10.20;;;1.60;99.90;;;2.33;100.00;96321.03;5181805;28;20214;-62
2021/12/04 06:34:07;;;;;;;11.17;9.73;;;1.70;99.90;;;2.34;100.00;96310.19;5182657;28;20210;-62
2021/12/04 06:36:40;;;;;;;11.43;10.33;;;1.70;99.90;;;2.38;100.00;96314.66;5183159;28;20202;-63
2021/12/04 06:39:14;;;;;;;11.93;9.53;;;1.70;99.90;;;2.43;100.00;96313.28;5183790;28;20195;-60
2021/12/04 06:41:48;;;;;;;11.27;10.07;;;1.70;99.90;;;2.41;100.00;96308.16;5178616;28;20215;-62
2021/12/04 06:44:21;;;;;;;10.57;9.33;;;1.70;99.90;;;2.37;100.00;96297.75;5184993;28;20306;-62
2021/12/04 06:46:55;;;;;;;12.33;10.43;;;1.70;99.90;;;2.40;100.00;96295.44;5182663;28;20493;-62
2021/12/04 06:49:33;;;;;;;9.97;9.00;;;1.80;99.90;;;2.38;100.00;96291.97;5191617;28;20293;-58
2021/12/04 06:52:11;;;;;;;10.70;9.57;;;1.70;99.90;;;2.39;100.00;96288.66;5187487;28;20244;-61
2021/12/04 06:54:51;;;;;;;9.47;8.57;;;1.70;99.90;;;2.34;100.00;96290.00;5189126;28;20673;-61
2021/12/04 06:57:25;;;;;;;10.70;9.37;;;1.70;99.90;;;2.27;100.00;96292.94;5182954;28;20201;-63
2021/12/04 06:59:59;;;;;;;10.47;9.37;;;1.70;99.90;;;2.35;100.00;96291.78;5182399;28;20289;-62
2021/12/04 07:02:32;;;;;;;13.93;11.47;;;1.80;99.90;;;2.40;100.00;96283.69;5183033;28;20203;-63
2021/12/04 07:05:08;;;;;;;10.10;9.10;;;1.80;99.90;;;2.47;100.00;96278.28;5183492;28;20606;-62
2021/12/04 07:07:41;;;;;;;10.37;9.27;;;1.90;99.90;;;2.46;100.00;96278.16;5176809;28;20731;-62
2021/12/04 07:10:14;;;;;;;10.93;9.80;;;1.90;99.90;;;2.45;100.00;96267.22;5180638;28;20210;-63
2021/12/04 07:12:48;;;;;;;11.17;9.97;;;1.90;99.90;;;2.50;100.00;96270.03;5177698;28;20620;-63
2021/12/04 07:15:26;;;;;;;18.80;12.77;;;1.90;99.90;;;2.55;100.00;96263.63;5181627;28;20225;-61
2021/12/04 07:18:00;;;;;;;18.87;15.27;;;1.90;99.90;;;2.59;100.00;96268.06;5181669;28;20194;-62
2021/12/04 07:20:34;;;;;;;14.13;12.47;;;2.00;99.90;;;2.57;100.00;96266.22;5181076;28;20222;-63
2021/12/04 07:23:07;;;;;;;10.63;9.57;;;2.00;99.90;;;2.59;100.00;96269.72;5181278;28;20593;-62
2021/12/04 07:25:40;;;;;;;10.70;9.40;;;2.00;99.90;;;2.62;100.00;96270.78;5182228;28;20223;-62
2021/12/04 07:28:13;;;;;;;9.50;8.60;;;2.00;99.90;;;2.64;100.00;96266.69;5184534;28;20213;-62
2021/12/04 07:30:46;;;;;;;9.07;8.20;;;1.90;99.90;;;2.57;100.00;96272.13;5180972;28;20230;-62
2021/12/04 07:33:20;;;;;;;7.97;7.17;;;1.90;99.90;;;2.57;100.00;96269.59;5184858;28;20202;-63
2021/12/04 07:35:57;;;;;;;9.07;8.17;;;1.90;99.90;;;2.53;100.00;96267.69;5184637;28;20190;-63
2021/12/04 07:38:31;;;;;;;8.10;7.30;;;1.90;99.90;;;2.53;100.00;96267.69;5180786;28;20290;-62
2021/12/04 07:41:04;;;;;;;8.03;7.33;;;1.90;99.90;;;2.54;100.00;96266.03;5181974;28;20236;-62
2021/12/04 07:43:37;;;;;;;8.10;7.10;;;1.90;99.90;;;2.55;100.00;96267.75;5183227;28;20563;-65
2021/12/04 07:46:15;;;;;;;8.17;7.37;;;2.00;99.90;;;2.58;100.00;96257.91;5180886;28;20202;-64
2021/12/04 07:48:49;;;;;;;7.53;6.87;;;2.00;99.90;;;2.65;100.00;96250.78;5183389;28;20673;-62
2021/12/04 07:51:23;;;;;;;8.70;7.80;;;2.00;99.90;;;2.68;100.00;96256.00;5185334;28;20616;-62
2021/12/04 07:53:56;;;;;;;8.47;7.67;;;2.10;99.90;;;2.73;100.00;96257.97;5187481;28;20198;-62
2021/12/04 07:56:29;;;;;;;8.37;7.57;;;2.10;99.90;;;2.76;100.00;96243.00;5187864;28;20199;-63
2021/12/04 07:59:03;;;;;;;10.27;9.27;;;2.10;99.90;;;2.79;100.00;96254.16;5178900;28;20627;-65
2021/12/04 08:01:36;;;;;;;29.10;16.63;;;2.20;99.90;;;2.86;100.00;96250.31;5185011;28;20650;-60
2021/12/04 08:04:09;;;;;;;35.43;20.70;;;2.30;99.90;;;2.92;100.00;96250.72;5181186;28;20555;-62
2021/12/04 08:06:44;;;;;;;16.93;12.30;;;2.30;99.90;;;2.91;100.00;96254.00;5184403;28;20223;-62
2021/12/04 08:09:17;;;;;;;10.80;9.13;;;2.30;99.90;;;2.86;100.00;96255.38;5185990;28;20564;-61
2021/12/04 08:11:50;;;;;;;15.10;12.63;;;2.30;99.90;;;2.86;100.00;96261.31;5184157;28;20308;-61
2021/12/04 08:14:24;;;;;;;12.90;10.53;;;2.20;99.90;;;2.92;100.00;96259.16;5186800;28;20569;-59
2021/12/04 08:16:57;;;;;;;13.47;11.20;;;2.30;99.90;;;2.96;100.00;96242.53;5183034;28;20676;-59
2021/12/04 08:19:30;;;;;;;12.43;11.23;;;2.30;99.90;;;2.98;100.00;96246.03;5185988;28;20298;-59
2021/12/04 08:22:05;;;;;;;9.90;9.00;;;2.40;99.90;;;2.99;100.00;96252.81;5182673;28;20229;-61
2021/12/04 08:24:39;;;;;;;9.60;8.63;;;2.40;99.90;;;3.00;100.00;96259.59;5183159;28;20223;-61
2021/12/04 08:27:12;;;;;;;11.63;10.57;;;2.30;99.90;;;3.03;100.00;96244.63;5185422;28;20211;-61
2021/12/04 08:29:46;;;;;;;10.87;9.73;;;2.40;99.90;;;3.07;100.00;96246.56;5186633;28;20664;-61
2021/12/04 08:32:22;;;;;;;14.20;12.23;;;2.40;99.90;;;3.10;100.00;96261.03;5178255;28;20231;-59
2021/12/04 08:34:56;;;;;;;17.07;14.47;;;2.40;99.90;;;3.07;100.00;96243.19;5177527;28;20207;-60
2021/12/04 08:37:30;;;;;;;15.27;13.67;;;2.40;99.90;;;3.05;100.00;96235.50;5184100;28;20290;-62
2021/12/04 08:40:10;;;;;;;17.53;14.87;;;2.40;99.90;;;3.07;100.00;96244.06;5184732;28;20196;-61
2021/12/04 08:42:45;;;;;;;16.20;14.20;;;2.50;99.90;;;3.09;100.00;96232.41;5184943;28;20201;-62
2021/12/04 08:45:19;;;;;;;14.97;13.47;;;2.50;99.90;;;3.23;100.00;96232.31;5176380;28;20228;-62
2021/12/04 08:47:53;;;;;;;18.13;15.87;;;2.60;99.90;;;3.25;100.00;96230.75;5183552;28;20204;-62
2021/12/04 08:50:29;;;;;;;18.73;16.77;;;2.60;99.90;;;3.21;100.00;96228.84;5181253;28;20313;-59
2021/12/04 08:53:07;;;;;;;23.03;18.40;;;2.60;99.90;;;3.27;100.00;96231.72;5173300;28;20657;-61
2021/12/04 08:55:43;;;;;;;15.77;14.17;;;2.60;99.90;;;3.28;100.00;96233.47;5166939;28;20656;-62
2021/12/04 08:58:16;;;;;;;17.87;15.10;;;2.60;99.90;;;3.42;100.00;96239.31;5167242;28;20198;-62
2021/12/04 09:00:54;;;;;;;15.53;13.93;;;2.70;99.90;;;3.37;100.00;96231.47;5193013;28;20223;-61
2021/12/04 09:03:30;;;;;;;16.43;14.70;;;2.70;99.90;;;3.42;100.00;96242.72;5178642;28;20642;-59
2021/12/04 09:06:05;;;;;;;19.77;17.00;;;2.80;99.90;;;3.45;100.00;96227.72;5185480;28;20256;-59
2021/12/04 09:08:40;;;;;;;17.80;15.50;;;2.90;99.90;;;3.54;100.00;96235.84;5185776;28;20208;-61
2021/12/04 09:11:17;;;;;;;19.37;16.67;;;2.90;99.90;;;3.55;100.00;96237.59;5183612;28;20664;-60
2021/12/04 09:13:53;;;;;;;19.43;17.23;;;2.90;99.90;;;3.59;100.00;96236.09;5176655;28;20197;-61
2021/12/04 09:16:27;;;;;;;16.93;15.27;;;2.90;99.90;;;3.56;100.00;96238.47;5183066;28;20603;-61
2021/12/04 09:19:01;;;;;;;22.07;19.23;;;2.90;99.90;;;3.56;100.00;96244.38;5186038;28;20194;-60
2021/12/04 09:21:36;;;;;;;24.20;21.80;;;2.90;99.90;;;3.63;100.00;96242.19;5185213;28;20224;-61
2021/12/04 09:24:13;;;;;;;23.43;21.13;;;2.90;99.90;;;3.63;100.00;96230.44;5184694;28;20202;-63
2021/12/04 09:26:55;;;;;;;20.73;18.63;;;2.90;99.90;;;3.61;100.00;96237.94;5184747;28;20695;-61
2021/12/04 09:35:30;;;;;;;24.33;21.90;;;3.00;99.90;;;3.72;100.00;96233.50;5182902;28;20655;-61
2021/12/04 10:12:45;;;;;;;14.20;13.10;;;3.60;99.90;;;4.31;100.00;96181.97;5181223;28;20215;-61
2021/12/04 10:15:43;;;;;;;10.97;9.93;;;3.50;99.90;;;4.17;100.00;96175.28;5181392;28;20195;-59
2021/12/04 10:18:47;;;;;;;13.57;12.37;;;3.50;99.90;;;4.20;100.00;96172.91;5184788;28;20201;-61
2021/12/04 10:21:46;;;;;;;21.57;19.57;;;3.50;99.90;;;4.22;100.00;96166.28;5174910;28;20225;-59
2021/12/04 10:24:41;;;;;;;19.33;17.47;;;3.50;99.90;;;4.24;100.00;96163.06;5175751;28;20201;-61
2021/12/04 10:33:15;;;;;;;16.23;14.23;;;3.70;99.90;;;4.34;100.00;96141.66;5182320;28;20213;-62
2021/12/04 10:35:50;;;;;;;20.23;17.60;;;3.70;99.90;;;4.40;100.00;96134.38;5181821;28;20201;-62
2021/12/04 10:38:28;;;;;;;18.00;16.13;;;3.70;99.90;;;4.43;100.00;96129.47;5180694;28;20205;-59
2021/12/04 10:41:02;;;;;;;14.03;12.47;;;3.80;99.90;;;4.44;100.00;96131.25;5179576;28;20232;-58
2021/12/04 10:43:36;;;;;;;12.20;10.53;;;3.80;99.90;;;4.61;100.00;96123.66;5179497;28;20214;-62
2021/12/04 10:46:14;;;;;;;12.67;11.47;;;3.90;99.90;;;4.57;100.00;96119.22;5181103;28;20701;-63
2021/12/04 10:48:55;;;;;;;16.67;13.97;;;3.90;99.90;;;4.58;100.00;96109.19;5181075;28;20569;-62
2021/12/04 10:51:32;;;;;;;13.57;12.13;;;4.00;99.90;;;4.63;100.00;96106.88;5181462;28;20230;-61
2021/12/04 10:54:23;;;;;;;26.23;18.83;;;4.00;99.90;;;4.69;100.00;96097.97;5180878;28;20207;-61
2021/12/04 10:57:16;;;;;;;26.70;20.40;;;4.00;99.90;;;4.77;100.00;96100.84;5177019;28;20199;-62
2021/12/04 10:59:54;;;;;;;22.00;17.20;;;4.10;99.90;;;4.77;100.00;96089.88;5181243;28;20194;-62
2021/12/04 11:02:40;;;;;;;11.17;10.07;;;4.10;99.90;;;4.85;100.00;96079.34;5185046;28;20226;-61
2021/12/04 11:05:57;;;;;;;8.30;7.70;;;4.20;99.90;;;4.85;100.00;96084.41;5185706;28;20210;-63
2021/12/04 11:23:10;;;;;;;7.90;7.20;;;4.40;99.90;;;5.09;100.00;96053.47;5183073;28;20199;-61
2021/12/04 11:40:35;;;;;;;19.20;17.40;;;4.70;99.90;;;5.43;100.00;96023.91;5170373;28;20199;-60
2021/12/04 11:43:15;;;;;;;19.67;17.70;;;4.70;99.90;;;5.49;100.00;96012.31;5184332;28;20198;-60
2021/12/04 11:46:01;;;;;;;16.83;15.17;;;4.80;99.90;;;5.52;100.00;96004.84;5182667;28;20206;-62
2021/12/04 11:48:37;;;;;;;13.90;12.70;;;4.80;99.90;;;5.56;100.00;96001.69;5182912;28;20210;-62
2021/12/04 11:51:18;;;;;;;14.77;13.27;;;4.90;99.90;;;5.62;100.00;96007.03;5186313;28;20701;-60
2021/12/04 11:53:56;;;;;;;10.33;9.33;;;5.00;99.90;;;5.69;100.00;96003.97;5183644;28;20297;-58
2021/12/04 11:56:31;;;;;;;10.07;9.10;;;5.00;99.90;;;5.74;100.00;96002.50;5186588;28;20197;-65
2021/12/04 11:59:04;;;;;;;11.97;10.87;;;5.00;99.90;;;5.75;100.00;95998.28;5186726;28;20190;-59
2021/12/04 12:01:39;;;;;;;18.13;16.40;;;5.10;99.90;;;5.79;100.00;95987.50;5185146;28;20233;-62
2021/12/04 12:04:13;;;;;;;17.73;15.57;;;5.10;99.90;;;5.86;100.00;95980.22;5184943;28;20198;-59
2021/12/04 12:06:48;;;;;;;17.07;15.33;;;5.20;99.90;;;5.87;100.00;95987.06;5185555;28;20218;-59
2021/12/04 12:09:29;;;;;;;17.07;15.33;;;5.20;99.90;;;5.90;100.00;95988.00;5182898;28;20198;-62
2021/12/04 12:12:04;;;;;;;13.30;12.10;;;5.20;99.90;;;5.89;100.00;95982.03;5181435;28;20222;-59
2021/12/04 12:14:45;;;;;;;12.30;11.17;;;5.20;99.90;;;5.88;100.00;95976.09;5183842;28;20201;-60
2021/12/04 12:17:31;;;;;;;11.60;10.50;;;5.10;99.90;;;5.86;100.00;95975.16;5185628;28;20201;-59
2021/12/04 12:20:11;;;;;;;13.07;11.53;;;5.10;99.90;;;5.90;100.00;95977.88;5185464;28;20650;-59
2021/12/04 12:22:48;;;;;;;11.77;10.60;;;5.10;99.90;;;5.87;100.00;95969.31;5182468;28;20202;-63
2021/12/04 12:25:28;;;;;;;11.80;10.67;;;5.10;99.90;;;5.88;100.00;95960.03;5179424;28;20209;-63
2021/12/04 12:37:24;;;;;;;18.33;16.57;;;5.40;99.90;;;6.05;100.00;95943.91;5179636;28;20194;-64
2021/12/04 12:40:01;;;;;;;16.93;15.37;;;5.30;99.90;;;6.09;100.00;95943.25;5179504;28;20209;-62
2021/12/04 12:42:41;;;;;;;19.03;17.13;;;5.40;99.90;;;6.12;100.00;95934.88;5184230;28;20249;-62
2021/12/04 12:45:21;;;;;;;20.40;18.23;;;5.40;99.90;;;6.16;100.00;95934.25;5184150;28;20212;-63
2021/12/04 12:48:05;;;;;;;22.77;20.47;;;5.50;99.90;;;6.26;100.00;95933.81;5177560;28;20722;-64
2021/12/04 12:50:42;;;;;;;20.97;17.10;;;5.50;99.90;;;6.30;100.00;95924.69;5184741;28;20228;-62
2021/12/04 12:53:20;;;;;;;31.67;28.50;;;5.50;99.90;;;6.31;100.00;95934.88;5179954;28;20297;-64
2021/12/04 12:56:06;;;;;;;32.70;29.50;;;5.60;99.90;;;6.42;100.00;95934.47;5183296;28;20289;-64
2021/12/04 12:58:44;;;;;;;27.93;25.00;;;5.70;99.90;;;6.46;100.00;95931.25;5182131;28;20660;-63
2021/12/04 13:13:30;;;;;;;31.37;28.27;;;5.80;99.90;;;6.53;100.00;95928.16;5179123;28;20205;-63
2021/12/04 13:16:15;;;;;;;25.27;22.87;;;5.80;99.90;;;6.57;100.00;95917.31;5179673;28;20202;-62
2021/12/04 13:18:56;;;;;;;25.43;23.07;;;5.90;99.90;;;6.59;100.00;95913.19;5174186;28;20190;-61
2021/12/04 13:21:29;;;;;;;31.37;27.70;;;5.90;99.90;;;6.56;100.00;95918.13;5175338;28;20317;-64